createdAt,value
2023-02-03T00:00:50.521Z,102377.66
2023-02-03T00:03:17.053Z,102380.06
2023-02-03T00:05:44.222Z,102396.72
2023-02-03T00:08:11.212Z,102391.63
2023-02-03T00:10:39.628Z,102381.59
2023-02-03T00:13:06.966Z,102388.25
2023-02-03T00:15:33.385Z,102397.41
2023-02-03T00:17:59.837Z,102404.50
2023-02-03T00:20:26.624Z,102396.56
2023-02-03T00:22:53.203Z,102388.69
2023-02-03T00:25:21.389Z,102400.25
2023-02-03T00:27:47.849Z,102401.78
2023-02-03T00:30:14.640Z,102405.75
2023-02-03T00:32:41.211Z,102419.03
2023-02-03T00:35:07.869Z,102420.88
2023-02-03T00:37:36.401Z,102412.97
2023-02-03T00:40:03.082Z,102421.59
2023-02-03T00:42:30.896Z,102421.72
2023-02-03T00:44:57.306Z,102409.56
2023-02-03T00:47:23.701Z,102411.97
2023-02-03T00:49:50.474Z,102399.38
2023-02-03T00:52:16.955Z,102400.50
2023-02-03T00:54:43.540Z,102380.03
2023-02-03T00:57:09.982Z,102374.09
2023-02-03T00:59:37.683Z,102390.63
2023-02-03T01:02:05.077Z,102379.63
2023-02-03T01:04:31.584Z,102395.56
2023-02-03T01:06:59.805Z,102397.97
2023-02-03T01:09:26.349Z,102398.69
2023-02-03T01:11:53.963Z,102388.63
2023-02-03T01:14:20.520Z,102376.78
2023-02-03T01:16:46.972Z,102385.41
2023-02-03T01:19:14.691Z,102381.72
2023-02-03T01:21:41.203Z,102367.16
2023-02-03T01:24:09.532Z,102374.22
2023-02-03T01:26:38.266Z,102355.41
2023-02-03T01:29:04.676Z,102363.50
2023-02-03T01:31:42.226Z,102369.88
2023-02-03T01:34:13.720Z,102367.03
2023-02-03T01:36:40.334Z,102368.56
2023-02-03T01:39:06.886Z,102362.19
2023-02-03T01:41:36.332Z,102372.94
2023-02-03T01:44:35.769Z,102366.59
2023-02-03T01:47:04.587Z,102344.22
2023-02-03T01:49:36.589Z,102337.72
2023-02-03T01:52:04.676Z,102347.34
2023-02-03T01:54:41.075Z,102345.91
2023-02-03T01:57:15.720Z,102336.16
2023-02-03T01:59:43.427Z,102324.75
2023-02-03T02:02:12.489Z,102334.38
2023-02-03T02:04:57.046Z,102323.31
2023-02-03T02:07:25.150Z,102324.41
2023-02-03T02:09:51.938Z,102332.31
2023-02-03T02:12:18.316Z,102343.09
2023-02-03T02:14:46.033Z,102357.13
2023-02-03T02:17:31.394Z,102348.03
2023-02-03T02:20:16.871Z,102345.22
2023-02-03T02:23:02.992Z,102329.22
2023-02-03T02:25:56.636Z,102318.78
2023-02-03T02:28:57.330Z,102330.91
2023-02-03T02:31:48.089Z,102327.25
2023-02-03T02:34:33.207Z,102320.16
2023-02-03T02:37:13.521Z,102311.16
2023-02-03T02:40:12.272Z,102305.34
2023-02-03T02:43:10.217Z,102317.38
2023-02-03T02:45:51.220Z,102303.22
2023-02-03T02:48:23.591Z,102321.44
2023-02-03T02:50:53.803Z,102304.38
2023-02-03T02:53:24.023Z,102310.97
2023-02-03T02:55:53.406Z,102299.69
2023-02-03T02:58:22.052Z,102305.78
2023-02-03T03:00:48.517Z,102321.34
2023-02-03T03:03:17.474Z,102323.31
2023-02-03T03:05:53.157Z,102318.81
2023-02-03T03:08:29.790Z,102321.78
2023-02-03T03:10:58.304Z,102314.16
2023-02-03T03:13:30.803Z,102327.28
2023-02-03T03:16:02.205Z,102315.59
2023-02-03T03:18:34.598Z,102327.28
2023-02-03T03:21:06.390Z,102331.06
2023-02-03T03:23:39.309Z,102324.88
2023-02-03T03:26:14.711Z,102337.16
2023-02-03T03:28:51.754Z,102339.69
2023-02-03T03:31:20.026Z,102311.16
2023-02-03T03:33:48.072Z,102313.28
2023-02-03T03:36:23.962Z,102322.75
2023-02-03T03:39:01.900Z,102309.03
2023-02-03T03:42:23.669Z,102310.09
2023-02-03T03:44:57.187Z,102321.63
2023-02-03T03:47:26.531Z,102315.41
2023-02-03T03:49:54.859Z,102332.38
2023-02-03T03:52:27.732Z,102332.06
2023-02-03T03:54:56.359Z,102319.28
2023-02-03T03:57:35.474Z,102326.44
2023-02-03T04:00:05.715Z,102328.38
2023-02-03T04:02:40.951Z,102332.91
2023-02-03T04:05:09.573Z,102316.25
2023-02-03T04:07:42.073Z,102313.56
2023-02-03T04:10:14.637Z,102331.53
2023-02-03T04:12:41.059Z,102332.38
2023-02-03T04:15:07.818Z,102345.22
2023-02-03T04:17:36.099Z,102338.13
2023-02-03T04:20:04.222Z,102331.25
2023-02-03T04:22:30.640Z,102335.50
2023-02-03T04:24:58.842Z,102317.38
2023-02-03T04:27:26.142Z,102328.38
2023-02-03T04:29:52.677Z,102313.84
2023-02-03T04:32:19.711Z,102320.38
2023-02-03T04:34:46.475Z,102327.28
2023-02-03T04:37:12.878Z,102323.47
2023-02-03T04:39:39.254Z,102327.28
2023-02-03T04:42:05.689Z,102308.94
2023-02-03T04:44:32.198Z,102304.72
2023-02-03T04:46:58.598Z,102305.78
2023-02-03T04:49:25.057Z,102300.19
2023-02-03T04:51:51.447Z,102291.56
2023-02-03T04:54:17.864Z,102297.22
2023-02-03T04:56:44.286Z,102292.13
2023-02-03T04:59:10.723Z,102306.13
2023-02-03T05:01:37.085Z,102304.56
2023-02-03T05:04:03.513Z,102298.91
2023-02-03T05:06:31.939Z,102300.03
2023-02-03T05:08:58.577Z,102316.44
2023-02-03T05:11:25.028Z,102315.75
2023-02-03T05:13:51.826Z,102304.03
2023-02-03T05:16:18.373Z,102320.41
2023-02-03T05:18:44.817Z,102313.34
2023-02-03T05:21:11.205Z,102319.44
2023-02-03T05:23:37.710Z,102315.59
2023-02-03T05:26:04.892Z,102303.00
2023-02-03T05:28:31.326Z,102315.75
2023-02-03T05:30:59.553Z,102317.97
2023-02-03T05:33:26.033Z,102310.78
2023-02-03T05:35:52.412Z,102316.44
2023-02-03T05:38:18.893Z,102313.75
2023-02-03T05:41:06.774Z,102318.44
2023-02-03T05:43:33.337Z,102317.88
2023-02-03T05:46:01.669Z,102326.09
2023-02-03T05:48:28.302Z,102321.84
2023-02-03T05:50:54.765Z,102315.47
2023-02-03T05:53:21.431Z,102319.84
2023-02-03T05:55:47.837Z,102334.25
2023-02-03T05:58:14.323Z,102327.06
2023-02-03T06:00:40.740Z,102316.91
2023-02-03T06:03:07.530Z,102319.88
2023-02-03T06:05:34.641Z,102320.59
2023-02-03T06:08:01.617Z,102302.66
2023-02-03T06:10:28.421Z,102319.03
2023-02-03T06:12:55.048Z,102338.81
2023-02-03T06:15:21.465Z,102336.69
2023-02-03T06:17:48.868Z,102341.06
2023-02-03T06:20:18.301Z,102329.34
2023-02-03T06:22:44.969Z,102333.00
2023-02-03T06:25:13.135Z,102340.34
2023-02-03T06:27:40.163Z,102330.91
2023-02-03T06:30:07.043Z,102335.13
2023-02-03T06:32:33.486Z,102344.59
2023-02-03T06:34:59.892Z,102348.28
2023-02-03T06:37:26.329Z,102338.81
2023-02-03T06:39:52.744Z,102351.25
2023-02-03T06:42:19.129Z,102350.41
2023-02-03T06:44:45.537Z,102362.97
2023-02-03T06:47:11.930Z,102362.13
2023-02-03T06:49:38.421Z,102362.81
2023-02-03T06:52:04.790Z,102380.06
2023-02-03T06:54:31.189Z,102380.78
2023-02-03T06:56:57.633Z,102388.53
2023-02-03T06:59:23.993Z,102391.91
2023-02-03T07:01:50.450Z,102380.50
2023-02-03T07:04:16.991Z,102382.75
2023-02-03T07:06:43.393Z,102374.69
2023-02-03T07:09:09.870Z,102379.91
2023-02-03T07:11:36.231Z,102378.78
2023-02-03T07:14:03.153Z,102376.53
2023-02-03T07:16:29.601Z,102373.84
2023-02-03T07:18:56.029Z,102373.84
2023-02-03T07:21:22.454Z,102370.44
2023-02-03T07:23:49.765Z,102374.69
2023-02-03T07:26:17.534Z,102383.59
2023-02-03T07:28:43.931Z,102373.69
2023-02-03T07:31:10.795Z,102381.47
2023-02-03T07:33:38.318Z,102371.84
2023-02-03T07:36:05.267Z,102381.31
2023-02-03T07:38:31.982Z,102383.72
2023-02-03T07:40:58.442Z,102379.34
2023-02-03T07:43:25.069Z,102381.31
2023-02-03T07:45:51.489Z,102387.69
2023-02-03T07:48:18.099Z,102390.91
2023-02-03T07:50:45.692Z,102391.47
2023-02-03T07:53:12.071Z,102386.78
2023-02-03T07:55:39.027Z,102395.69
2023-02-03T07:58:06.104Z,102396.97
2023-02-03T08:00:32.536Z,102392.03
2023-02-03T08:02:59.039Z,102396.53
2023-02-03T08:05:25.484Z,102412.09
2023-02-03T08:07:51.911Z,102418.59
2023-02-03T08:10:18.547Z,102415.06
2023-02-03T08:12:46.653Z,102436.81
2023-02-03T08:15:14.192Z,102442.47
2023-02-03T08:17:41.828Z,102423.50
2023-02-03T08:20:09.564Z,102430.16
2023-02-03T08:22:36.157Z,102449.69
2023-02-03T08:25:03.774Z,102455.34
2023-02-03T08:27:32.066Z,102449.09
2023-02-03T08:29:59.164Z,102453.19
2023-02-03T08:32:26.528Z,102461.81
2023-02-03T08:34:53.703Z,102446.41
2023-02-03T08:37:24.248Z,102469.06
2023-02-03T08:39:51.843Z,102470.75
2023-02-03T08:42:19.540Z,102465.94
2023-02-03T08:44:46.191Z,102454.06
2023-02-03T08:47:13.115Z,102471.59
2023-02-03T08:49:39.744Z,102466.91
2023-02-03T08:52:11.515Z,102460.97
2023-02-03T08:54:39.028Z,102473.56
2023-02-03T08:57:06.341Z,102468.59
2023-02-03T08:59:36.004Z,102470.44
2023-02-03T09:02:14.402Z,102469.44
2023-02-03T09:04:40.833Z,102483.00
2023-02-03T09:07:07.262Z,102487.22
2023-02-03T09:09:33.742Z,102490.31
2023-02-03T09:12:05.368Z,102478.44
2023-02-03T09:14:33.411Z,102478.00
2023-02-03T09:17:01.627Z,102501.63
2023-02-03T09:19:28.070Z,102491.84
2023-02-03T09:21:54.671Z,102490.56
2023-02-03T09:24:22.241Z,102499.19
2023-02-03T09:26:48.998Z,102495.94
2023-02-03T09:29:15.558Z,102499.34
2023-02-03T09:31:42.083Z,102495.38
2023-02-03T09:34:08.508Z,102496.81
2023-02-03T09:36:35.358Z,102507.41
2023-02-03T09:39:01.989Z,102515.47
2023-02-03T09:42:05.873Z,102510.38
2023-02-03T09:45:06.369Z,102510.38
2023-02-03T09:47:36.379Z,102516.16
2023-02-03T09:50:06.789Z,102521.25
2023-02-03T09:52:36.828Z,102517.16
2023-02-03T09:55:26.909Z,102520.50
2023-02-03T09:58:08.915Z,102520.69
2023-02-03T10:00:41.581Z,102524.88
2023-02-03T10:03:20.113Z,102536.94
2023-02-03T10:05:52.504Z,102522.66
2023-02-03T10:08:40.561Z,102526.91
2023-02-03T10:11:17.247Z,102543.75
2023-02-03T10:14:00.527Z,102536.38
2023-02-03T10:16:33.094Z,102542.31
2023-02-03T10:19:08.584Z,102538.94
2023-02-03T10:21:37.796Z,102549.69
2023-02-03T10:24:09.689Z,102534.69
2023-02-03T10:26:38.493Z,102555.63
2023-02-03T10:29:28.886Z,102560.69
2023-02-03T10:31:57.590Z,102557.75
2023-02-03T10:34:25.720Z,102559.28
2023-02-03T10:37:03.323Z,102573.84
2023-02-03T10:39:32.997Z,102583.03
2023-02-03T10:42:01.207Z,102577.22
2023-02-03T10:44:38.119Z,102565.78
2023-02-03T10:47:20.694Z,102573.56
2023-02-03T10:49:51.101Z,102576.53
2023-02-03T10:52:33.908Z,102585.44
2023-02-03T10:55:28.993Z,102589.41
2023-02-03T10:57:56.875Z,102592.94
2023-02-03T11:00:29.279Z,102596.31
2023-02-03T11:03:22.761Z,102603.97
2023-02-03T11:06:07.543Z,102600.84
2023-02-03T11:08:36.287Z,102601.25
2023-02-03T11:11:09.052Z,102602.69
2023-02-03T11:13:36.037Z,102598.00
2023-02-03T11:16:22.121Z,102598.28
2023-02-03T11:18:53.278Z,102594.47
2023-02-03T11:21:22.327Z,102589.81
2023-02-03T11:24:04.770Z,102598.28
2023-02-03T11:26:40.003Z,102600.69
2023-02-03T11:29:14.352Z,102597.59
2023-02-03T11:31:48.414Z,102608.91
2023-02-03T11:34:43.491Z,102613.75
2023-02-03T11:37:26.956Z,102608.38
2023-02-03T11:40:08.441Z,102583.59
2023-02-03T11:42:38.153Z,102605.13
2023-02-03T11:45:26.796Z,102598.72
2023-02-03T11:48:01.975Z,102596.63
2023-02-03T11:50:41.115Z,102610.50
2023-02-03T11:53:21.759Z,102595.88
2023-02-03T11:56:36.303Z,102604.38
2023-02-03T11:59:36.760Z,102609.19
2023-02-03T12:02:40.366Z,102617.41
2023-02-03T12:05:28.332Z,102621.09
2023-02-03T12:08:06.644Z,102634.41
2023-02-03T12:10:38.650Z,102623.38
2023-02-03T12:13:48.482Z,102636.41
2023-02-03T12:16:52.198Z,102631.03
2023-02-03T12:19:59.114Z,102636.81
2023-02-03T12:22:34.435Z,102643.47
2023-02-03T12:25:26.674Z,102637.09
2023-02-03T12:28:32.867Z,102641.63
2023-02-03T12:31:33.314Z,102637.81
2023-02-03T12:34:04.183Z,102646.59
2023-02-03T12:36:38.417Z,102641.91
2023-02-03T12:39:19.391Z,102659.03
2023-02-03T12:41:59.776Z,102656.91
2023-02-03T12:44:32.591Z,102655.78
2023-02-03T12:47:31.431Z,102655.31
2023-02-03T12:50:05.321Z,102671.19
2023-02-03T12:52:56.116Z,102672.75
2023-02-03T12:55:44.838Z,102679.81
2023-02-03T12:58:27.054Z,102683.06
2023-02-03T13:01:05.284Z,102682.38
2023-02-03T13:03:35.607Z,102688.31
2023-02-03T13:06:16.449Z,102702.59
2023-02-03T13:08:54.069Z,102705.03
2023-02-03T13:11:29.130Z,102702.06
2023-02-03T13:14:00.552Z,102705.88
2023-02-03T13:16:35.400Z,102706.88
2023-02-03T13:19:15.012Z,102703.59
2023-02-03T13:21:42.002Z,102706.88
2023-02-03T13:24:11.265Z,102708.44
2023-02-03T13:27:14.102Z,102712.81
2023-02-03T13:30:11.634Z,102707.72
2023-02-03T13:32:40.904Z,102699.78
2023-02-03T13:35:21.569Z,102701.78
2023-02-03T13:38:20.674Z,102706.31
2023-02-03T13:41:16.490Z,102710.13
2023-02-03T13:43:51.320Z,102698.25
2023-02-03T13:46:25.723Z,102702.03
2023-02-03T13:48:54.163Z,102699.66
2023-02-03T13:51:23.881Z,102695.41
2023-02-03T13:53:52.352Z,102695.69
2023-02-03T13:56:24.848Z,102708.44
2023-02-03T13:59:06.248Z,102700.38
2023-02-03T14:01:37.101Z,102714.38
2023-02-03T14:04:06.455Z,102719.75
2023-02-03T14:06:36.269Z,102704.19
2023-02-03T14:09:22.056Z,102699.38
2023-02-03T14:12:12.297Z,102710.97
2023-02-03T14:14:38.663Z,102713.94
2023-02-03T14:17:08.633Z,102709.72
2023-02-03T14:19:35.113Z,102721.88
2023-02-03T14:22:16.027Z,102720.47
2023-02-03T14:24:46.411Z,102730.22
2023-02-03T14:27:22.873Z,102738.00
2023-02-03T14:30:09.786Z,102742.81
2023-02-03T14:32:51.901Z,102749.03
2023-02-03T14:35:22.063Z,102738.84
2023-02-03T14:37:54.399Z,102739.00
2023-02-03T14:40:38.497Z,102738.44
2023-02-03T14:43:16.024Z,102736.47
2023-02-03T14:46:16.695Z,102745.50
2023-02-03T14:49:00.572Z,102744.81
2023-02-03T14:51:48.706Z,102746.34
2023-02-03T14:54:36.594Z,102743.53
2023-02-03T14:57:24.393Z,102747.50
2023-02-03T15:00:29.194Z,102760.22
2023-02-03T15:03:09.108Z,102755.41
2023-02-03T15:05:40.322Z,102759.94
2023-02-03T15:08:31.457Z,102759.66
2023-02-03T15:10:57.832Z,102767.00
2023-02-03T15:13:29.533Z,102770.69
2023-02-03T15:16:02.513Z,102765.16
2023-02-03T15:18:37.436Z,102781.72
2023-02-03T15:21:04.680Z,102780.97
2023-02-03T15:23:41.465Z,102776.25
2023-02-03T15:26:17.572Z,102779.66
2023-02-03T15:28:44.566Z,102779.31
2023-02-03T15:31:25.141Z,102778.63
2023-02-03T15:33:56.642Z,102778.00
2023-02-03T15:36:32.525Z,102782.56
2023-02-03T15:39:12.307Z,102779.31
2023-02-03T15:41:39.614Z,102770.00
2023-02-03T15:44:22.147Z,102781.47
2023-02-03T15:46:52.444Z,102774.94
2023-02-03T15:49:27.217Z,102773.81
2023-02-03T15:52:11.699Z,102772.69
2023-02-03T15:54:50.920Z,102787.97
2023-02-03T15:57:22.435Z,102786.72
2023-02-03T16:00:08.789Z,102791.09
2023-02-03T16:02:45.688Z,102784.00
2023-02-03T16:05:23.919Z,102797.88
2023-02-03T16:07:51.067Z,102799.44
2023-02-03T16:10:43.656Z,102792.75
2023-02-03T16:13:20.440Z,102805.50
2023-02-03T16:16:05.843Z,102809.63
2023-02-03T16:18:36.495Z,102810.72
2023-02-03T16:21:05.248Z,102817.69
2023-02-03T16:23:32.145Z,102820.50
2023-02-03T16:26:06.318Z,102814.28
2023-02-03T16:28:51.606Z,102819.22
2023-02-03T16:31:38.990Z,102827.97
2023-02-03T16:34:35.688Z,102826.72
2023-02-03T16:37:29.730Z,102836.63
2023-02-03T16:40:15.188Z,102845.66
2023-02-03T16:42:59.949Z,102862.22
2023-02-03T16:45:44.856Z,102857.22
2023-02-03T16:48:30.612Z,102864.44
2023-02-03T16:51:03.513Z,102869.28
2023-02-03T16:53:32.307Z,102866.84
2023-02-03T16:56:01.507Z,102865.88
2023-02-03T16:58:28.132Z,102874.94
2023-02-03T17:00:55.180Z,102867.44
2023-02-03T17:03:23.782Z,102872.88
2023-02-03T17:05:51.857Z,102879.78
2023-02-03T17:08:21.213Z,102884.31
2023-02-03T17:10:48.032Z,102897.28
2023-02-03T17:13:15.968Z,102904.63
2023-02-03T17:15:45.333Z,102896.56
2023-02-03T17:18:14.799Z,102898.44
2023-02-03T17:20:42.269Z,102902.69
2023-02-03T17:23:09.719Z,102891.09
2023-02-03T17:25:36.943Z,102904.53
2023-02-03T17:28:08.292Z,102910.91
2023-02-03T17:30:35.492Z,102909.72
2023-02-03T17:33:03.380Z,102912.81
2023-02-03T17:35:30.197Z,102919.88
2023-02-03T17:37:56.825Z,102921.59
2023-02-03T17:54:09.020Z,102944.44
2023-02-03T17:56:35.741Z,102946.97
2023-02-03T17:59:04.700Z,102946.59
2023-02-03T18:01:32.190Z,102951.69
2023-02-03T18:04:04.631Z,102957.66
2023-02-03T18:06:34.981Z,102960.34
2023-02-03T18:09:06.637Z,102965.31
2023-02-03T18:11:34.757Z,102973.53
2023-02-03T18:14:02.037Z,102977.31
2023-02-03T18:16:33.002Z,102979.16
2023-02-03T18:19:01.132Z,102980.00
2023-02-03T18:21:27.660Z,102984.28
2023-02-03T18:23:59.305Z,102986.97
2023-02-03T18:26:28.684Z,102994.19
2023-02-03T18:28:55.573Z,102984.53
2023-02-03T18:31:22.127Z,102999.63
2023-02-03T18:33:48.676Z,103001.47
2023-02-03T18:36:16.648Z,103007.81
2023-02-03T18:38:44.590Z,103010.63
2023-02-03T18:41:22.587Z,103017.50
2023-02-03T18:43:49.313Z,103007.03
2023-02-03T18:46:22.531Z,103014.09
2023-02-03T18:48:49.654Z,103009.00
2023-02-03T18:51:18.249Z,103023.81
2023-02-03T18:53:46.647Z,103024.25
2023-02-03T18:56:16.404Z,103026.44
2023-02-03T18:58:42.833Z,103033.75
2023-02-03T19:01:09.628Z,103033.75
2023-02-03T19:03:37.975Z,103033.06
2023-02-03T19:06:08.981Z,103030.09
2023-02-03T19:08:35.369Z,103036.19
2023-02-03T19:11:01.815Z,103041.31
2023-02-03T19:13:28.209Z,103033.38
2023-02-03T19:15:54.605Z,103041.31
2023-02-03T19:18:21.049Z,103034.81
2023-02-03T19:20:47.452Z,103027.03
2023-02-03T19:23:14.238Z,103035.94
2023-02-03T19:25:40.687Z,103033.97
2023-02-03T19:28:14.221Z,103041.03
2023-02-03T19:30:44.398Z,103043.72
2023-02-03T19:33:11.597Z,103042.16
2023-02-03T19:35:38.499Z,103051.22
2023-02-03T19:38:05.312Z,103052.31
2023-02-03T19:40:31.964Z,103051.97
2023-02-03T19:42:58.932Z,103056.25
2023-02-03T19:45:25.358Z,103068.94
2023-02-03T19:47:51.844Z,103072.75
2023-02-03T19:50:18.708Z,103073.72
2023-02-03T19:52:45.200Z,103078.00
2023-02-03T19:55:13.956Z,103087.16
2023-02-03T19:57:40.396Z,103087.75
2023-02-03T20:00:07.497Z,103086.50
2023-02-03T20:02:40.150Z,103096.16
2023-02-03T20:05:06.843Z,103088.50
2023-02-03T20:07:33.755Z,103100.34
2023-02-03T20:10:00.874Z,103098.50
2023-02-03T20:12:27.255Z,103091.19
2023-02-03T20:14:53.691Z,103093.00
2023-02-03T20:17:20.141Z,103102.38
2023-02-03T20:19:46.544Z,103089.19
2023-02-03T20:22:12.975Z,103097.78
2023-02-03T20:24:39.368Z,103097.91
2023-02-03T20:27:05.770Z,103100.22
2023-02-03T20:29:32.220Z,103097.66
2023-02-03T20:31:58.768Z,103111.94
2023-02-03T20:34:27.418Z,103101.78
2023-02-03T20:36:58.761Z,103097.25
2023-02-03T20:39:25.704Z,103103.47
2023-02-03T20:41:52.538Z,103097.00
2023-02-03T20:44:19.101Z,103096.16
2023-02-03T20:46:45.734Z,103105.22
2023-02-03T20:49:15.011Z,103107.16
2023-02-03T20:51:41.548Z,103116.34
2023-02-03T20:54:16.939Z,103128.19
2023-02-03T20:56:44.101Z,103124.75
2023-02-03T20:59:17.282Z,103128.34
2023-02-03T21:01:45.438Z,103124.66
2023-02-03T21:04:32.545Z,103129.50
2023-02-03T21:06:59.569Z,103126.94
2023-02-03T21:09:27.402Z,103119.53
2023-02-03T21:11:55.369Z,103124.19
2023-02-03T21:14:32.428Z,103125.66
2023-02-03T21:16:58.903Z,103139.94
2023-02-03T21:19:32.294Z,103137.50
2023-02-03T21:22:04.167Z,103136.50
2023-02-03T21:24:36.643Z,103138.09
2023-02-03T21:27:31.731Z,103135.41
2023-02-03T21:30:00.007Z,103135.06
2023-02-03T21:32:36.904Z,103134.94
2023-02-03T21:35:23.763Z,103139.44
2023-02-03T21:37:52.890Z,103141.75
2023-02-03T21:40:25.568Z,103146.25
2023-02-03T21:42:52.808Z,103137.63
2023-02-03T21:45:22.350Z,103145.19
2023-02-03T21:47:51.314Z,103154.97
2023-02-03T21:50:31.674Z,103150.31
2023-02-03T21:53:07.467Z,103152.50
2023-02-03T21:55:34.316Z,103157.50
2023-02-03T21:58:25.583Z,103165.66
2023-02-03T22:00:54.199Z,103166.41
2023-02-03T22:03:33.474Z,103179.09
2023-02-03T22:06:08.962Z,103181.78
2023-02-03T22:08:41.924Z,103183.88
2023-02-03T22:11:08.780Z,103186.31
2023-02-03T22:13:35.516Z,103199.63
2023-02-03T22:16:03.788Z,103189.75
2023-02-03T22:18:30.496Z,103184.22
2023-02-03T22:20:57.187Z,103194.97
2023-02-03T22:23:24.205Z,103200.34
2023-02-03T22:25:50.618Z,103202.19
2023-02-03T22:28:17.506Z,103198.75
2023-02-03T22:30:44.105Z,103202.31
2023-02-03T22:33:10.543Z,103202.31
2023-02-03T22:35:36.945Z,103216.00
2023-02-03T22:38:03.647Z,103216.59
2023-02-03T22:40:30.346Z,103214.03
2023-02-03T22:42:57.077Z,103217.47
2023-02-03T22:45:23.539Z,103217.06
2023-02-03T22:47:49.904Z,103211.56
2023-02-03T22:50:20.429Z,103216.94
2023-02-03T22:52:48.769Z,103223.19
2023-02-03T22:55:15.157Z,103231.13
2023-02-03T22:57:42.254Z,103234.66
2023-02-03T23:00:13.676Z,103236.50
2023-02-03T23:02:40.611Z,103237.47
2023-02-03T23:05:08.688Z,103235.75
2023-02-03T23:07:37.138Z,103242.25
2023-02-03T23:10:05.154Z,103236.66
2023-02-03T23:12:31.684Z,103239.81
2023-02-03T23:14:58.352Z,103238.59
2023-02-03T23:17:24.932Z,103239.97
2023-02-03T23:19:51.342Z,103238.97
2023-02-03T23:22:17.769Z,103238.97
2023-02-03T23:24:44.184Z,103236.28
2023-02-03T23:27:10.788Z,103244.09
2023-02-03T23:29:38.175Z,103252.78
2023-02-03T23:32:05.567Z,103248.00
2023-02-03T23:34:50.587Z,103251.69
2023-02-03T23:37:17.087Z,103257.63
2023-02-03T23:39:43.471Z,103255.56
2023-02-03T23:42:09.907Z,103254.59
2023-02-03T23:44:36.326Z,103256.41
2023-02-03T23:47:02.845Z,103258.38
2023-02-03T23:49:29.258Z,103257.41
2023-02-03T23:51:55.696Z,103255.44
2023-02-03T23:54:22.150Z,103258.38
2023-02-03T23:56:48.733Z,103253.16
2023-02-03T23:59:15.220Z,103257.63
